Meteo Giornale » Osservazioni meteo Egitto » Marsa Alam
ore: 05:00 - Osservazioni Meteo Marsa Alam
Lat. 25° 33' N Lon. 34° 35' E Alt. 77 metri s.l.m.
28 °C
Sereno
Temp. 24 Ore
28 °C
34 °C
Nord
5.5 Km/h
Dew point 11 °C
Umidità 34 %
Visibilità 10 Km
Il sole sorge alle ore 06:22
Il sole tramonta alle ore 19:01
| Data e Ora | Cielo e Fenomeni | T °C | DP °C | Um. % | Pres. hPa | Vis. km | Vento km/h | |
|---|---|---|---|---|---|---|---|---|
| Oggi h: 05:00 | Sereno | 28 | 11 | 34 | 1007 | 10 | N 5.5 | |
| Oggi h: 04:00 | Sereno | 28 | 12 | 37 | 1007 | 10 | N 5.5 | |
| Oggi h: 03:00 | Sereno | 29 | 12 | 35 | 1007 | 10 | NO 7.4 | |
| Oggi h: 02:00 | Sereno | 28 | 10 | 32 | 1007 | 10 | SO 14.8 | |
| Oggi h: 01:00 | Sereno | 28 | 10 | 32 | 1007 | 10 | SO 13 | |
| Oggi h: 00:00 | Sereno | 29 | 11 | 32 | 1008 | 10 | SO 14.8 | |
| Ieri h: 23:00 | Sereno | 29 | 18 | 51 | 1008 | 10 | N/NO 9.3 | |
| Ieri h: 22:00 | Sereno | 29 | 19 | 54 | 1008 | 10 | NO 11.1 | |
| Ieri h: 21:00 | Sereno | 30 | 19 | 51 | 1008 | 10 | NO 9.3 | |
| Ieri h: 20:00 | Sereno | 31 | 21 | 55 | 1007 | 10 | N 18.5 | |
| Ieri h: 19:00 | Sereno | 31 | 20 | 52 | 1007 | 10 | N 20.3 | |
| Ieri h: 18:00 | Sereno | 32 | 21 | 52 | 1006 | 10 | N 20.3 | |
| Ieri h: 17:00 | Sereno | 32 | 19 | 46 | 1006 | 10 | N 27.8 | |
| Ieri h: 16:00 | Sereno | 33 | 19 | 43 | 1007 | 10 | N 31.5 | |
| Ieri h: 15:00 | Sereno | 33 | 20 | 46 | 1007 | 10 | N 33.3 | |
| Ieri h: 14:00 | Sereno | 34 | 16 | 34 | 1007 | 10 | N/NO 31.5 | |
| Ieri h: 13:00 | Sereno | 34 | 18 | 38 | 1008 | 10 | N 31.5 | |
| Ieri h: 12:00 | Sereno | 34 | 19 | 41 | 1008 | 10 | N 33.3 | |
| Ieri h: 11:00 | Sereno | 32 | 16 | 38 | 1009 | 10 | NO 29.6 | |
| Ieri h: 10:00 | Sereno | 32 | 16 | 38 | 1009 | 10 | N/NO 31.5 | |
| Ieri h: 09:00 | Sereno | 32 | 17 | 40 | 1008 | 10 | N/NO 33.3 | |
| Ieri h: 08:00 | Sereno | 30 | 12 | 33 | 1008 | 10 | O/NO 20.3 | |
| Ieri h: 07:00 | Sereno | 29 | 13 | 37 | 1008 | 10 | NO 20.3 | |



